createdAt,value
2022-11-29T00:01:32.642Z,77.72
2022-11-29T00:03:59.569Z,78.07
2022-11-29T00:06:32.034Z,78.03
2022-11-29T00:09:01.034Z,78.26
2022-11-29T00:11:49.235Z,78.12
2022-11-29T00:14:18.079Z,78.16
2022-11-29T00:16:45.139Z,78.31
2022-11-29T00:19:13.613Z,78.87
2022-11-29T00:21:40.082Z,79.31
2022-11-29T00:24:06.831Z,80.78
2022-11-29T00:26:33.191Z,80.50
2022-11-29T00:28:59.526Z,81.04
2022-11-29T00:31:32.765Z,80.34
2022-11-29T00:34:01.094Z,80.21
2022-11-29T00:36:28.168Z,80.62
2022-11-29T00:38:54.503Z,80.44
2022-11-29T00:41:20.881Z,80.41
2022-11-29T00:43:47.255Z,79.75
2022-11-29T00:46:13.720Z,79.14
2022-11-29T00:48:40.172Z,80.00
2022-11-29T00:51:07.169Z,79.99
2022-11-29T00:53:35.348Z,79.37
2022-11-29T00:56:02.229Z,78.63
2022-11-29T00:58:28.871Z,77.38
2022-11-29T01:00:55.975Z,77.31
2022-11-29T01:03:23.033Z,76.90
2022-11-29T01:05:49.822Z,77.54
2022-11-29T01:08:17.189Z,77.17
2022-11-29T01:10:43.633Z,76.97
2022-11-29T01:13:10.849Z,77.17
2022-11-29T01:15:37.483Z,76.88
2022-11-29T01:18:04.294Z,76.58
2022-11-29T01:20:30.649Z,76.99
2022-11-29T01:22:56.983Z,77.92
2022-11-29T01:25:23.451Z,78.10
2022-11-29T01:27:49.827Z,79.11
2022-11-29T01:30:16.386Z,79.75
2022-11-29T01:32:42.968Z,80.39
2022-11-29T01:35:09.408Z,80.64
2022-11-29T01:37:35.872Z,80.81
2022-11-29T01:40:02.389Z,81.19
2022-11-29T01:42:28.929Z,81.95
2022-11-29T01:45:04.838Z,81.65
2022-11-29T01:47:32.281Z,81.28
2022-11-29T01:49:59.864Z,80.79
2022-11-29T01:52:30.780Z,80.02
2022-11-29T01:55:01.664Z,80.02
2022-11-29T01:57:28.801Z,78.98
2022-11-29T02:00:02.174Z,78.00
2022-11-29T02:02:36.841Z,77.60
2022-11-29T02:05:04.106Z,76.69
2022-11-29T02:07:31.009Z,75.94
2022-11-29T02:09:57.415Z,75.58
2022-11-29T02:12:38.178Z,75.08
2022-11-29T02:15:13.580Z,75.14
2022-11-29T02:17:52.243Z,75.79
2022-11-29T02:20:55.448Z,74.97
2022-11-29T02:23:51.262Z,74.85
2022-11-29T02:26:28.800Z,75.28
2022-11-29T02:29:20.974Z,75.11
2022-11-29T02:32:08.346Z,75.03
2022-11-29T02:35:00.538Z,74.81
2022-11-29T02:37:48.427Z,75.00
2022-11-29T02:40:24.190Z,75.64
2022-11-29T02:43:18.494Z,76.12
2022-11-29T02:46:16.730Z,76.77
2022-11-29T02:48:55.533Z,77.13
2022-11-29T02:51:48.246Z,77.72
2022-11-29T02:54:44.471Z,77.91
2022-11-29T02:57:41.050Z,77.99
2022-11-29T03:00:17.758Z,78.85
2022-11-29T03:03:03.298Z,79.10
2022-11-29T03:05:41.893Z,79.48
2022-11-29T03:08:11.227Z,79.82
2022-11-29T03:11:04.810Z,80.49
2022-11-29T03:13:50.923Z,79.96
2022-11-29T03:16:30.119Z,80.15
2022-11-29T03:19:17.453Z,80.49
2022-11-29T03:22:10.166Z,80.43
2022-11-29T03:24:49.408Z,79.92
2022-11-29T03:27:28.660Z,80.18
2022-11-29T03:29:58.813Z,79.44
2022-11-29T03:32:34.810Z,79.21
2022-11-29T03:35:09.998Z,79.54
2022-11-29T03:37:47.892Z,79.54
2022-11-29T03:40:22.300Z,79.18
2022-11-29T03:42:55.055Z,79.43
2022-11-29T03:45:32.792Z,80.06
2022-11-29T03:48:11.534Z,79.93
2022-11-29T03:50:43.166Z,80.16
2022-11-29T03:53:20.110Z,80.24
2022-11-29T03:55:48.940Z,79.89
2022-11-29T03:58:52.499Z,79.93
2022-11-29T04:01:37.442Z,79.77
2022-11-29T04:04:22.630Z,78.97
2022-11-29T04:07:16.220Z,78.69
2022-11-29T04:10:04.535Z,77.97
2022-11-29T04:13:08.668Z,77.91
2022-11-29T04:16:10.137Z,77.00
2022-11-29T04:18:58.023Z,76.53
2022-11-29T04:21:32.278Z,76.11
2022-11-29T04:24:36.288Z,76.03
2022-11-29T04:27:19.943Z,76.19
2022-11-29T04:30:05.035Z,76.63
2022-11-29T04:33:15.026Z,76.88
2022-11-29T04:36:14.187Z,76.66
2022-11-29T04:39:02.906Z,76.38
2022-11-29T04:41:32.177Z,75.85
2022-11-29T04:44:09.365Z,75.08
2022-11-29T04:47:11.695Z,75.09
2022-11-29T04:50:15.697Z,74.77
2022-11-29T04:52:45.016Z,75.54
2022-11-29T04:55:40.398Z,74.98
2022-11-29T04:58:30.170Z,74.03
2022-11-29T05:01:39.774Z,73.70
2022-11-29T05:04:23.405Z,73.66
2022-11-29T05:07:02.941Z,73.59
2022-11-29T05:09:55.267Z,73.36
2022-11-29T05:12:28.391Z,73.29
2022-11-29T05:15:29.098Z,73.47
2022-11-29T05:18:00.166Z,73.35
2022-11-29T05:20:44.978Z,72.99
2022-11-29T05:24:11.964Z,73.05
2022-11-29T05:26:49.051Z,72.83
2022-11-29T05:29:50.219Z,72.63
2022-11-29T05:32:32.545Z,72.87
2022-11-29T05:35:35.593Z,72.61
2022-11-29T05:38:29.744Z,72.82
2022-11-29T05:41:21.106Z,72.86
2022-11-29T05:44:15.461Z,72.70
2022-11-29T05:47:02.657Z,72.38
2022-11-29T05:49:38.029Z,72.57
2022-11-29T05:52:34.820Z,72.75
2022-11-29T05:55:44.931Z,72.30
2022-11-29T05:58:38.949Z,72.90
2022-11-29T06:01:25.967Z,72.88
2022-11-29T06:04:10.336Z,72.89
2022-11-29T06:06:47.669Z,72.70
2022-11-29T06:09:21.638Z,72.50
2022-11-29T06:11:58.047Z,73.12
2022-11-29T06:15:00.781Z,72.62
2022-11-29T06:17:55.114Z,72.68
2022-11-29T06:20:39.696Z,72.64
2022-11-29T06:23:15.265Z,72.82
2022-11-29T06:25:48.329Z,73.05
2022-11-29T06:28:56.128Z,72.87
2022-11-29T06:31:31.903Z,72.87
2022-11-29T06:34:17.088Z,72.63
2022-11-29T06:36:46.445Z,72.67
2022-11-29T06:39:13.204Z,72.21
2022-11-29T06:41:39.589Z,72.34
2022-11-29T06:44:06.561Z,72.54
2022-11-29T06:47:00.947Z,72.57
2022-11-29T06:49:32.938Z,72.69
2022-11-29T06:52:08.471Z,72.44
2022-11-29T06:55:02.704Z,72.08
2022-11-29T06:57:41.862Z,72.50
2022-11-29T07:00:23.833Z,72.26
2022-11-29T07:03:24.057Z,72.48
2022-11-29T07:05:50.834Z,72.65
2022-11-29T07:08:20.793Z,72.61
2022-11-29T07:10:50.027Z,72.45
2022-11-29T07:13:20.453Z,72.55
2022-11-29T07:15:49.873Z,72.33
2022-11-29T07:18:35.658Z,72.45
2022-11-29T07:21:14.256Z,72.33
2022-11-29T07:23:57.319Z,72.11
2022-11-29T07:26:59.405Z,72.05
2022-11-29T07:29:39.532Z,72.36
2022-11-29T07:32:24.155Z,72.00
2022-11-29T07:35:09.290Z,72.16
2022-11-29T07:37:41.221Z,72.34
2022-11-29T07:40:37.144Z,72.40
2022-11-29T07:43:25.447Z,72.19
2022-11-29T07:45:52.072Z,71.87
2022-11-29T07:48:18.481Z,72.44
2022-11-29T07:50:45.350Z,71.91
2022-11-29T07:53:18.044Z,72.14
2022-11-29T07:55:44.960Z,72.08
2022-11-29T07:58:13.194Z,72.02
2022-11-29T08:00:41.988Z,71.87
2022-11-29T08:03:09.450Z,71.83
2022-11-29T08:05:37.145Z,72.24
2022-11-29T08:08:04.258Z,71.61
2022-11-29T08:10:30.745Z,71.96
2022-11-29T08:12:57.294Z,71.59
2022-11-29T08:15:25.015Z,71.75
2022-11-29T08:17:53.024Z,71.30
2022-11-29T08:20:19.759Z,71.47
2022-11-29T08:22:53.927Z,71.09
2022-11-29T08:25:20.260Z,70.87
2022-11-29T08:27:46.602Z,71.17
2022-11-29T08:30:13.226Z,71.05
2022-11-29T08:32:39.629Z,70.85
2022-11-29T08:35:06.120Z,70.67
2022-11-29T08:37:32.464Z,70.59
2022-11-29T08:39:59.018Z,70.29
2022-11-29T08:42:25.419Z,70.75
2022-11-29T08:44:51.959Z,70.77
2022-11-29T08:47:36.244Z,70.94
2022-11-29T08:50:17.826Z,70.79
2022-11-29T08:53:05.203Z,71.15
2022-11-29T08:55:35.475Z,70.49
2022-11-29T08:58:04.814Z,70.40
2022-11-29T09:00:32.433Z,70.32
2022-11-29T09:03:19.267Z,70.58
2022-11-29T09:05:45.945Z,70.37
2022-11-29T09:08:12.329Z,70.64
2022-11-29T09:10:40.114Z,70.20
2022-11-29T09:13:07.971Z,70.60
2022-11-29T09:15:34.501Z,70.13
2022-11-29T09:18:00.843Z,70.19
2022-11-29T09:20:27.212Z,69.84
2022-11-29T09:22:53.573Z,70.09
2022-11-29T09:25:19.917Z,70.11
2022-11-29T09:27:46.367Z,69.69
2022-11-29T09:30:13.063Z,69.44
2022-11-29T09:32:39.412Z,69.70
2022-11-29T09:35:06.194Z,69.91
2022-11-29T09:37:33.117Z,69.88
2022-11-29T09:39:59.521Z,70.44
2022-11-29T09:42:47.520Z,70.21
2022-11-29T09:45:19.445Z,69.96
2022-11-29T09:48:01.123Z,69.88
2022-11-29T09:50:34.924Z,69.66
2022-11-29T09:53:21.082Z,70.14
2022-11-29T09:56:05.418Z,69.58
2022-11-29T09:58:40.561Z,69.40
2022-11-29T10:01:13.311Z,69.55
2022-11-29T10:03:47.027Z,69.44
2022-11-29T10:06:13.325Z,69.64
2022-11-29T10:08:47.043Z,69.65
2022-11-29T10:11:28.247Z,69.43
2022-11-29T10:14:01.325Z,69.70
2022-11-29T10:17:00.236Z,69.55
2022-11-29T10:19:36.332Z,69.26
2022-11-29T10:22:07.590Z,69.23
2022-11-29T10:24:34.382Z,69.47
2022-11-29T10:27:00.946Z,69.01
2022-11-29T10:29:27.453Z,68.40
2022-11-29T10:31:56.610Z,68.23
2022-11-29T10:34:25.577Z,67.97
2022-11-29T10:37:02.192Z,68.05
2022-11-29T10:39:39.706Z,68.43
2022-11-29T10:42:34.554Z,67.27
2022-11-29T10:45:01.705Z,67.40
2022-11-29T10:47:28.333Z,67.04
2022-11-29T10:49:54.803Z,67.14
2022-11-29T10:52:23.254Z,66.77
2022-11-29T10:54:53.581Z,66.89
2022-11-29T10:57:22.346Z,66.66
2022-11-29T10:59:59.792Z,66.04
2022-11-29T11:02:27.708Z,65.46
2022-11-29T11:04:54.484Z,64.81
2022-11-29T11:07:40.683Z,64.92
2022-11-29T11:10:27.282Z,64.32
2022-11-29T11:13:20.439Z,64.01
2022-11-29T11:15:47.011Z,64.55
2022-11-29T11:18:26.597Z,63.78
2022-11-29T11:20:56.412Z,64.11
2022-11-29T11:23:25.996Z,64.07
2022-11-29T11:26:07.505Z,63.81
2022-11-29T11:28:48.350Z,64.47
2022-11-29T11:31:15.133Z,64.58
2022-11-29T11:33:46.005Z,64.77
2022-11-29T11:36:12.525Z,64.30
2022-11-29T11:38:51.432Z,64.24
2022-11-29T11:41:47.493Z,64.02
2022-11-29T11:44:47.224Z,64.35
2022-11-29T11:47:19.802Z,63.67
2022-11-29T11:50:11.289Z,64.09
2022-11-29T11:52:50.722Z,64.21
2022-11-29T11:55:40.454Z,64.03
2022-11-29T11:58:12.495Z,63.84
2022-11-29T12:01:04.082Z,63.60
2022-11-29T12:03:49.728Z,63.82
2022-11-29T12:06:28.550Z,63.45
2022-11-29T12:09:23.317Z,62.96
2022-11-29T12:12:00.323Z,63.06
2022-11-29T12:14:36.569Z,63.11
2022-11-29T12:17:37.100Z,63.02
2022-11-29T12:20:12.797Z,63.20
2022-11-29T12:22:51.712Z,62.58
2022-11-29T12:25:25.069Z,63.14
2022-11-29T12:27:51.980Z,62.96
2022-11-29T12:30:19.311Z,63.06
2022-11-29T12:33:06.879Z,63.39
2022-11-29T12:35:39.716Z,63.15
2022-11-29T12:38:23.692Z,63.70
2022-11-29T12:40:53.277Z,63.82
2022-11-29T12:43:22.648Z,63.39
2022-11-29T12:46:16.568Z,63.83
2022-11-29T12:48:45.964Z,63.73
2022-11-29T12:51:31.090Z,63.87
2022-11-29T12:54:18.265Z,64.09
2022-11-29T12:56:59.067Z,63.72
2022-11-29T12:59:43.044Z,63.93
2022-11-29T13:02:22.011Z,63.62
2022-11-29T13:05:19.301Z,64.02
2022-11-29T13:08:07.473Z,63.63
2022-11-29T13:10:58.341Z,63.00
2022-11-29T13:13:38.928Z,62.81
2022-11-29T13:16:31.504Z,63.02
2022-11-29T13:19:04.107Z,63.47
2022-11-29T13:21:45.651Z,63.46
2022-11-29T13:24:28.962Z,63.90
2022-11-29T13:26:56.774Z,63.97
2022-11-29T13:29:24.044Z,63.93
2022-11-29T13:31:51.586Z,64.57
2022-11-29T13:34:26.567Z,64.40
2022-11-29T13:37:04.782Z,64.90
2022-11-29T13:39:53.137Z,64.85
2022-11-29T13:42:27.956Z,65.53
2022-11-29T13:45:26.493Z,65.62
2022-11-29T13:47:59.889Z,66.12
2022-11-29T13:50:39.268Z,66.04
2022-11-29T13:53:18.939Z,66.11
2022-11-29T13:55:49.727Z,66.24
2022-11-29T13:58:17.734Z,65.57
2022-11-29T14:00:44.537Z,65.93
2022-11-29T14:03:23.176Z,66.89
2022-11-29T14:05:52.350Z,67.06
2022-11-29T14:09:02.037Z,66.88
2022-11-29T14:11:25.167Z,67.09
2022-11-29T14:13:59.220Z,66.87
2022-11-29T14:16:34.678Z,67.34
2022-11-29T14:19:10.293Z,67.25
2022-11-29T14:22:02.973Z,67.03
2022-11-29T14:24:35.007Z,67.28
2022-11-29T14:27:12.103Z,67.49
2022-11-29T14:29:47.529Z,67.49
2022-11-29T14:32:35.670Z,67.54
2022-11-29T14:35:42.922Z,67.87
2022-11-29T14:38:29.214Z,68.22
2022-11-29T14:41:13.758Z,68.18
2022-11-29T14:43:43.151Z,68.17
2022-11-29T14:46:29.281Z,68.06
2022-11-29T14:48:55.983Z,68.28
2022-11-29T14:51:25.591Z,68.07
2022-11-29T14:54:21.293Z,68.02
2022-11-29T14:56:47.718Z,68.04
2022-11-29T14:59:45.082Z,67.84
2022-11-29T15:02:37.219Z,67.89
2022-11-29T15:05:24.392Z,68.38
2022-11-29T15:08:03.382Z,68.60
2022-11-29T15:10:34.747Z,68.69
2022-11-29T15:13:02.906Z,68.91
2022-11-29T15:15:32.217Z,69.37
2022-11-29T15:18:24.320Z,69.11
2022-11-29T15:21:19.153Z,69.23
2022-11-29T15:23:45.690Z,69.01
2022-11-29T15:26:18.459Z,69.24
2022-11-29T15:28:45.419Z,69.38
2022-11-29T15:31:16.254Z,69.81
2022-11-29T15:33:45.809Z,69.83
2022-11-29T15:36:17.837Z,69.62
2022-11-29T15:38:51.686Z,69.67
2022-11-29T15:41:34.002Z,70.29
2022-11-29T15:44:03.334Z,70.42
2022-11-29T15:46:32.072Z,70.87
2022-11-29T15:49:33.737Z,71.17
2022-11-29T15:52:05.970Z,71.02
2022-11-29T15:54:37.570Z,70.83
2022-11-29T15:57:23.676Z,70.33
2022-11-29T15:59:55.668Z,70.42
2022-11-29T16:02:48.497Z,70.86
2022-11-29T16:05:26.621Z,70.90
2022-11-29T16:08:00.337Z,70.76
2022-11-29T16:10:36.738Z,71.12
2022-11-29T16:13:26.228Z,71.35
2022-11-29T16:16:13.949Z,71.38
2022-11-29T16:18:42.917Z,71.36
2022-11-29T16:21:31.931Z,71.39
2022-11-29T16:24:10.074Z,71.50
2022-11-29T16:26:41.392Z,71.25
2022-11-29T16:29:26.470Z,72.04
2022-11-29T16:31:53.523Z,71.73
2022-11-29T16:34:27.787Z,71.82
2022-11-29T16:37:02.848Z,71.56
2022-11-29T16:39:30.211Z,71.68
2022-11-29T16:42:29.217Z,71.51
2022-11-29T16:45:31.032Z,71.67
2022-11-29T16:48:01.367Z,72.08
2022-11-29T16:50:29.709Z,71.99
2022-11-29T16:52:57.135Z,71.67
2022-11-29T16:55:24.263Z,71.59
2022-11-29T16:57:51.939Z,71.82
2022-11-29T17:00:23.266Z,72.31
2022-11-29T17:02:50.185Z,72.51
2022-11-29T17:05:16.621Z,72.42
2022-11-29T17:07:43.727Z,72.79
2022-11-29T17:10:16.387Z,72.48
2022-11-29T17:12:47.822Z,72.47
2022-11-29T17:15:14.735Z,72.08
2022-11-29T17:17:42.380Z,72.13
2022-11-29T17:20:13.951Z,72.37
2022-11-29T17:22:40.669Z,72.48
2022-11-29T17:25:07.478Z,71.98
2022-11-29T17:27:34.017Z,72.15
2022-11-29T17:30:00.386Z,72.34
2022-11-29T17:32:27.176Z,72.48
2022-11-29T17:34:53.818Z,72.40
2022-11-29T17:37:20.191Z,72.47
2022-11-29T17:39:48.953Z,72.91
2022-11-29T17:42:15.566Z,72.85
2022-11-29T17:44:42.032Z,72.95
2022-11-29T17:47:08.404Z,72.75
2022-11-29T17:49:34.747Z,72.85
2022-11-29T17:52:01.162Z,73.52
2022-11-29T17:54:27.548Z,73.23
2022-11-29T17:56:54.102Z,72.73
2022-11-29T17:59:20.551Z,72.75
2022-11-29T18:01:47.463Z,72.54
2022-11-29T18:04:14.087Z,72.73
2022-11-29T18:06:41.324Z,73.85
2022-11-29T18:09:09.890Z,74.79
2022-11-29T18:11:46.909Z,74.18
2022-11-29T18:14:17.229Z,74.12
2022-11-29T18:16:45.249Z,73.77
2022-11-29T18:19:14.158Z,73.62
2022-11-29T18:21:40.576Z,72.94
2022-11-29T18:24:07.843Z,72.76
2022-11-29T18:26:35.650Z,72.56
2022-11-29T18:29:02.242Z,72.79
2022-11-29T18:31:34.112Z,72.55
2022-11-29T18:34:02.558Z,72.28
2022-11-29T18:36:32.396Z,72.36
2022-11-29T18:39:01.156Z,72.60
2022-11-29T18:41:29.053Z,73.01
2022-11-29T18:44:17.010Z,73.10
2022-11-29T18:46:44.821Z,73.47
2022-11-29T18:49:13.910Z,74.04
2022-11-29T18:51:42.855Z,74.03
2022-11-29T18:54:09.470Z,73.92
2022-11-29T18:56:36.777Z,73.95
2022-11-29T18:59:10.113Z,74.00
2022-11-29T19:01:41.040Z,73.52
2022-11-29T19:04:10.143Z,73.85
2022-11-29T19:06:40.003Z,73.23
2022-11-29T19:09:09.556Z,73.06
2022-11-29T19:11:35.931Z,72.77
2022-11-29T19:14:06.340Z,73.09
2022-11-29T19:16:34.373Z,73.46
2022-11-29T19:19:01.229Z,73.78
2022-11-29T19:21:29.664Z,74.12
2022-11-29T19:23:58.553Z,73.63
2022-11-29T19:26:27.677Z,74.24
2022-11-29T19:28:54.658Z,74.28
2022-11-29T19:31:24.866Z,73.94
2022-11-29T19:33:52.720Z,73.79
2022-11-29T19:36:27.901Z,73.73
2022-11-29T19:38:54.829Z,73.90
2022-11-29T19:41:30.005Z,73.88
2022-11-29T19:43:58.008Z,73.95
2022-11-29T19:46:27.001Z,73.98
2022-11-29T19:48:56.026Z,74.11
2022-11-29T19:51:23.518Z,73.57
2022-11-29T19:53:58.367Z,74.76
2022-11-29T19:56:25.378Z,74.19
2022-11-29T19:58:55.350Z,74.37
2022-11-29T20:01:36.055Z,74.77
2022-11-29T20:04:06.284Z,75.40
2022-11-29T20:06:32.997Z,75.24
2022-11-29T20:09:00.717Z,75.70
2022-11-29T20:11:30.054Z,75.32
2022-11-29T20:14:01.360Z,75.36
2022-11-29T20:16:29.703Z,74.97
2022-11-29T20:18:56.597Z,74.69
2022-11-29T20:21:28.831Z,74.64
2022-11-29T20:24:03.571Z,74.25
2022-11-29T20:26:31.774Z,74.52
2022-11-29T20:29:00.311Z,74.70
2022-11-29T20:31:27.025Z,74.62
2022-11-29T20:33:57.038Z,74.08
2022-11-29T20:36:42.338Z,74.33
2022-11-29T20:39:50.305Z,74.06
2022-11-29T20:42:28.868Z,74.44
2022-11-29T20:45:01.262Z,74.30
2022-11-29T20:47:33.487Z,74.46
2022-11-29T20:49:59.979Z,75.03
2022-11-29T20:52:32.691Z,74.46
2022-11-29T20:54:59.023Z,74.72
2022-11-29T20:57:25.369Z,74.73
2022-11-29T20:59:51.682Z,74.27
2022-11-29T21:02:18.092Z,74.56
2022-11-29T21:04:44.702Z,74.86
2022-11-29T21:07:11.267Z,74.84
2022-11-29T21:09:37.815Z,74.83
2022-11-29T21:12:04.596Z,74.61
2022-11-29T21:14:31.199Z,74.00
2022-11-29T21:16:57.879Z,74.34
2022-11-29T21:19:25.713Z,74.46
2022-11-29T21:22:46.823Z,74.19
2022-11-29T21:25:48.317Z,74.35
2022-11-29T21:28:16.385Z,74.22
2022-11-29T21:30:43.532Z,74.31
2022-11-29T21:33:11.225Z,74.75
2022-11-29T21:35:39.727Z,75.13
2022-11-29T21:38:12.341Z,75.94
2022-11-29T21:40:38.660Z,76.35
2022-11-29T21:43:04.989Z,76.64
2022-11-29T21:45:31.337Z,76.36
2022-11-29T21:48:00.584Z,77.20
2022-11-29T21:50:27.110Z,76.86
2022-11-29T21:52:53.465Z,76.55
2022-11-29T21:55:19.806Z,76.02
2022-11-29T21:57:46.180Z,75.69
2022-11-29T22:00:13.135Z,74.84
2022-11-29T22:02:39.681Z,75.03
2022-11-29T22:05:07.876Z,75.03
2022-11-29T22:07:34.245Z,74.83
2022-11-29T22:10:09.945Z,74.74
2022-11-29T22:12:42.852Z,74.65
2022-11-29T22:15:13.883Z,74.58
2022-11-29T22:17:40.227Z,74.82
2022-11-29T22:20:07.462Z,74.33
2022-11-29T22:22:34.010Z,74.53
2022-11-29T22:25:00.390Z,74.46
2022-11-29T22:27:26.925Z,74.16
2022-11-29T22:29:53.287Z,74.20
2022-11-29T22:32:19.604Z,74.47
2022-11-29T22:34:46.276Z,74.10
2022-11-29T22:37:12.815Z,74.39
2022-11-29T22:39:39.323Z,74.98
2022-11-29T22:42:05.705Z,74.93
2022-11-29T22:44:32.033Z,75.00
2022-11-29T22:46:58.476Z,74.72
2022-11-29T22:49:24.839Z,74.73
2022-11-29T22:51:52.220Z,75.00
2022-11-29T22:54:18.641Z,74.19
2022-11-29T22:56:45.810Z,74.62
2022-11-29T22:59:12.723Z,74.74
2022-11-29T23:01:41.059Z,74.56
2022-11-29T23:04:08.247Z,74.99
2022-11-29T23:06:37.267Z,74.91
2022-11-29T23:09:15.652Z,75.11
2022-11-29T23:11:43.877Z,75.00
2022-11-29T23:14:10.471Z,75.25
2022-11-29T23:16:36.924Z,75.10
2022-11-29T23:19:03.529Z,74.95
2022-11-29T23:21:32.731Z,74.65
2022-11-29T23:24:02.317Z,75.01
2022-11-29T23:26:40.569Z,74.99
2022-11-29T23:29:10.631Z,74.81
2022-11-29T23:31:37.295Z,74.90
2022-11-29T23:34:03.834Z,74.59
2022-11-29T23:36:30.600Z,74.37
2022-11-29T23:38:57.117Z,74.36
2022-11-29T23:41:23.568Z,74.06
2022-11-29T23:43:50.052Z,74.00
2022-11-29T23:46:19.317Z,73.92
2022-11-29T23:48:46.432Z,73.82
2022-11-29T23:51:13.363Z,74.05
2022-11-29T23:53:41.116Z,73.91
2022-11-29T23:56:11.993Z,73.74
2022-11-29T23:58:38.446Z,73.68
